createdAt,value
2019-04-19T00:01:15.804Z,98752.07
2019-04-19T00:03:44.092Z,98744.99
2019-04-19T00:06:18.325Z,98748.34
2019-04-19T00:09:00.052Z,98748.06
2019-04-19T00:11:18.887Z,98747.89
2019-04-19T00:13:37.148Z,98749.20
2019-04-19T00:16:04.651Z,98743.94
2019-04-19T00:18:31.294Z,98746.53
2019-04-19T00:21:19.351Z,98751.03
2019-04-19T00:23:34.857Z,98747.16
2019-04-19T00:25:55.751Z,98744.64
2019-04-19T00:28:35.312Z,98742.20
2019-04-19T00:30:59.229Z,98743.25
2019-04-19T00:33:28.302Z,98736.37
2019-04-19T00:35:49.625Z,98738.87
2019-04-19T00:38:35.171Z,98740.05
2019-04-19T00:41:03.080Z,98740.32
2019-04-19T00:43:34.152Z,98739.70
2019-04-19T00:46:03.331Z,98736.25
2019-04-19T00:48:30.082Z,98738.38
2019-04-19T00:50:52.980Z,98742.40
2019-04-19T00:53:21.698Z,98740.05
2019-04-19T00:55:49.637Z,98738.56
2019-04-19T00:58:12.240Z,98735.83
2019-04-19T01:00:36.781Z,98738.63
2019-04-19T01:03:02.649Z,98736.58
2019-04-19T01:05:31.975Z,98734.07
2019-04-19T01:08:00.834Z,98731.11
2019-04-19T01:10:38.227Z,98731.94
2019-04-19T01:13:08.077Z,98729.56
2019-04-19T01:15:31.863Z,98726.22
2019-04-19T01:18:10.697Z,98731.27
2019-04-19T01:20:20.691Z,98731.83
2019-04-19T01:22:55.817Z,98729.32
2019-04-19T01:25:22.684Z,98728.83
2019-04-19T01:27:44.883Z,98723.39
2019-04-19T01:30:12.552Z,98724.79
2019-04-19T01:32:47.031Z,98722.59
2019-04-19T01:35:12.955Z,98731.89
2019-04-19T01:37:37.000Z,98725.88
2019-04-19T01:40:18.524Z,98721.17
2019-04-19T01:42:50.722Z,98729.33
2019-04-19T01:45:15.340Z,98730.58
2019-04-19T01:47:47.740Z,98736.30
2019-04-19T01:50:09.724Z,98737.88
2019-04-19T01:55:09.013Z,98735.25
2019-04-19T01:57:24.347Z,98736.47
2019-04-19T01:59:55.410Z,98741.17
2019-04-19T02:02:24.002Z,98738.67
2019-04-19T02:04:53.012Z,98735.08
2019-04-19T02:07:22.301Z,98737.09
2019-04-19T02:09:59.192Z,98737.75
2019-04-19T02:12:26.182Z,98737.31
2019-04-19T02:14:50.605Z,98735.69
2019-04-19T02:17:13.649Z,98736.47
2019-04-19T02:19:47.328Z,98740.73
2019-04-19T02:22:17.466Z,98732.19
2019-04-19T02:24:42.297Z,98733.42
2019-04-19T02:27:08.221Z,98739.05
2019-04-19T02:29:35.087Z,98737.88
2019-04-19T02:34:54.584Z,98726.35
2019-04-19T02:49:51.513Z,98727.78
2019-04-19T02:52:22.174Z,98727.80
2019-04-19T02:54:54.126Z,98726.49
2019-04-19T02:57:22.963Z,98724.45
2019-04-19T02:59:47.790Z,98727.16
2019-04-19T03:02:28.751Z,98725.13
2019-04-19T03:04:53.787Z,98725.63
2019-04-19T03:06:49.165Z,98727.75
2019-04-19T03:09:11.332Z,98724.98
2019-04-19T03:11:53.312Z,98733.16
2019-04-19T03:14:20.635Z,98735.61
2019-04-19T03:16:57.908Z,98736.09
2019-04-19T03:19:14.781Z,98739.74
2019-04-19T03:21:46.879Z,98744.95
2019-04-19T03:24:15.357Z,98737.66
2019-04-19T03:26:45.928Z,98742.78
2019-04-19T03:29:08.879Z,98749.17
2019-04-19T03:32:02.134Z,98748.28
2019-04-19T03:34:31.517Z,98748.15
2019-04-19T03:36:42.629Z,98744.91
2019-04-19T03:39:18.011Z,98742.50
2019-04-19T03:44:10.153Z,98752.61
2019-04-19T03:46:46.102Z,98747.34
2019-04-19T03:49:09.300Z,98746.55
2019-04-19T03:51:28.816Z,98754.88
2019-04-19T03:54:00.610Z,98746.80
2019-04-19T03:56:36.238Z,98754.42
2019-04-19T03:58:41.808Z,98758.98
2019-04-19T04:01:08.708Z,98760.84
2019-04-19T04:03:40.484Z,98769.48
2019-04-19T04:06:03.979Z,98760.84
2019-04-19T04:08:32.307Z,98769.88
2019-04-19T04:11:00.202Z,98769.05
2019-04-19T04:13:38.466Z,98769.45
2019-04-19T04:16:09.854Z,98774.70
2019-04-19T04:18:25.643Z,98781.63
2019-04-19T04:20:56.996Z,98783.44
2019-04-19T04:23:29.972Z,98780.20
2019-04-19T04:25:59.103Z,98777.62
2019-04-19T04:28:36.715Z,98785.39
2019-04-19T04:30:57.285Z,98783.72
2019-04-19T04:33:30.984Z,98788.35
2019-04-19T04:35:57.072Z,98786.70
2019-04-19T04:38:21.750Z,98798.06
2019-04-19T04:40:40.825Z,98794.81
2019-04-19T04:43:20.343Z,98803.53
2019-04-19T04:46:01.977Z,98808.38
2019-04-19T04:48:29.307Z,98803.98
2019-04-19T04:50:56.185Z,98804.34
2019-04-19T04:53:02.801Z,98803.59
2019-04-19T04:55:30.474Z,98814.58
2019-04-19T04:58:00.982Z,98810.23
2019-04-19T05:00:32.857Z,98809.55
2019-04-19T05:03:09.284Z,98812.03
2019-04-19T05:05:38.418Z,98816.58
2019-04-19T05:08:14.189Z,98811.66
2019-04-19T05:10:33.231Z,98810.02
2019-04-19T05:15:36.423Z,98809.96
2019-04-19T05:18:12.363Z,98805.48
2019-04-19T05:20:29.136Z,98804.16
2019-04-19T05:22:59.413Z,98807.05
2019-04-19T05:25:35.725Z,98806.66
2019-04-19T05:27:55.621Z,98807.66
2019-04-19T05:30:07.157Z,98808.19
2019-04-19T05:32:36.513Z,98809.70
2019-04-19T05:35:15.420Z,98814.02
2019-04-19T05:37:49.896Z,98814.70
2019-04-19T05:40:15.213Z,98810.92
2019-04-19T05:42:46.965Z,98814.23
2019-04-19T05:45:26.273Z,98816.86
2019-04-19T05:47:37.613Z,98811.95
2019-04-19T05:50:17.135Z,98811.10
2019-04-19T05:52:39.464Z,98819.42
2019-04-19T05:54:49.810Z,98810.27
2019-04-19T05:57:37.135Z,98812.27
2019-04-19T05:59:54.679Z,98809.81
2019-04-19T06:02:24.459Z,98815.62
2019-04-19T06:05:09.108Z,98813.91
2019-04-19T06:07:26.502Z,98812.48
2019-04-19T06:09:38.969Z,98817.69
2019-04-19T06:12:13.539Z,98818.78
2019-04-19T06:14:59.027Z,98815.56
2019-04-19T06:17:38.757Z,98818.17
2019-04-19T06:20:13.665Z,98815.06
2019-04-19T06:22:41.726Z,98817.77
2019-04-19T06:25:06.943Z,98822.95
2019-04-19T06:27:53.217Z,98820.88
2019-04-19T06:30:10.147Z,98817.38
2019-04-19T06:32:42.079Z,98813.86
2019-04-19T06:35:00.254Z,98804.27
2019-04-19T06:37:17.033Z,98810.61
2019-04-19T06:39:39.986Z,98813.22
2019-04-19T06:42:10.223Z,98813.34
2019-04-19T06:45:00.486Z,98811.31
2019-04-19T06:47:15.762Z,98815.03
2019-04-19T06:49:34.357Z,98808.86
2019-04-19T06:52:09.744Z,98809.33
2019-04-19T06:54:36.638Z,98813.69
2019-04-19T06:57:26.699Z,98812.31
2019-04-19T06:59:57.737Z,98813.10
2019-04-19T07:02:14.032Z,98816.66
2019-04-19T07:04:52.272Z,98821.63
2019-04-19T07:07:31.003Z,98821.30
2019-04-19T07:10:15.307Z,98825.16
2019-04-19T07:12:44.023Z,98822.42
2019-04-19T07:15:06.650Z,98824.47
2019-04-19T07:17:36.737Z,98827.64
2019-04-19T07:20:06.086Z,98824.52
2019-04-19T07:22:37.891Z,98826.06
2019-04-19T07:25:13.590Z,98825.69
2019-04-19T07:27:28.508Z,98821.10
2019-04-19T07:29:40.474Z,98821.30
2019-04-19T07:32:08.260Z,98822.00
2019-04-19T07:34:48.105Z,98824.74
2019-04-19T07:37:22.057Z,98827.41
2019-04-19T07:40:01.013Z,98825.86
2019-04-19T07:42:26.390Z,98834.20
2019-04-19T07:44:37.373Z,98831.98
2019-04-19T07:47:12.610Z,98832.81
2019-04-19T07:49:25.360Z,98832.04
2019-04-19T07:52:02.638Z,98834.34
2019-04-19T08:09:42.939Z,98839.31
2019-04-19T08:12:13.052Z,98835.30
2019-04-19T08:32:26.294Z,98831.66
2019-04-19T08:35:01.809Z,98834.04
2019-04-19T08:37:32.025Z,98825.93
2019-04-19T08:40:18.233Z,98828.33
2019-04-19T08:42:47.497Z,98828.63
2019-04-19T08:45:09.928Z,98830.61
2019-04-19T08:47:43.970Z,98836.06
2019-04-19T08:50:11.880Z,98837.02
2019-04-19T08:52:40.115Z,98827.91
2019-04-19T08:55:33.791Z,98831.17
2019-04-19T08:57:40.606Z,98835.50
2019-04-19T09:00:41.073Z,98828.08
2019-04-19T09:02:54.361Z,98829.44
2019-04-19T09:05:27.236Z,98822.09
2019-04-19T09:07:59.666Z,98825.70
2019-04-19T09:10:40.105Z,98821.43
2019-04-19T09:13:23.986Z,98822.99
2019-04-19T09:15:41.000Z,98818.88
2019-04-19T09:21:05.212Z,98815.94
2019-04-19T09:23:27.324Z,98812.06
2019-04-19T09:25:55.841Z,98812.84
2019-04-19T09:28:42.590Z,98812.59
2019-04-19T09:31:06.026Z,98811.20
2019-04-19T09:33:32.613Z,98807.70
2019-04-19T09:36:03.217Z,98807.27
2019-04-19T09:38:43.356Z,98802.66
2019-04-19T09:43:58.940Z,98800.59
2019-04-19T09:46:14.881Z,98796.34
2019-04-19T09:49:02.104Z,98787.02
2019-04-19T09:51:34.495Z,98791.19
2019-04-19T09:54:04.083Z,98787.64
2019-04-19T09:59:10.199Z,98784.45
2019-04-19T10:01:37.241Z,98783.83
2019-04-19T10:04:04.163Z,98779.32
2019-04-19T10:06:33.088Z,98774.78
2019-04-19T10:09:11.205Z,98781.78
2019-04-19T10:11:35.465Z,98772.72
2019-04-19T10:14:06.539Z,98772.64
2019-04-19T10:16:35.241Z,98764.45
2019-04-19T10:19:06.179Z,98761.55
2019-04-19T10:21:33.680Z,98769.14
2019-04-19T10:24:01.793Z,98758.80
2019-04-19T10:26:26.719Z,98748.17
2019-04-19T10:28:53.706Z,98748.70
2019-04-19T10:31:20.261Z,98757.63
2019-04-19T10:33:53.188Z,98752.22
2019-04-19T10:36:15.071Z,98747.20
2019-04-19T10:38:41.587Z,98746.58
2019-04-19T10:41:09.386Z,98741.78
2019-04-19T10:43:37.050Z,98737.03
2019-04-19T10:46:04.820Z,98738.59
2019-04-19T10:48:32.711Z,98740.10
2019-04-19T10:50:59.555Z,98736.63
2019-04-19T10:53:26.209Z,98736.49
2019-04-19T10:55:54.337Z,98726.18
2019-04-19T10:58:21.392Z,98732.15
2019-04-19T11:00:49.792Z,98726.66
2019-04-19T11:03:16.919Z,98725.22
2019-04-19T11:05:44.886Z,98719.17
2019-04-19T11:08:12.719Z,98706.93
2019-04-19T11:10:39.970Z,98710.16
2019-04-19T11:15:38.407Z,98711.47
2019-04-19T11:18:05.550Z,98707.67
2019-04-19T11:20:40.281Z,98695.84
2019-04-19T11:23:03.757Z,98703.11
2019-04-19T11:25:30.444Z,98693.67
2019-04-19T11:27:57.946Z,98692.08
2019-04-19T11:30:24.627Z,98694.38
2019-04-19T11:32:51.266Z,98686.66
2019-04-19T11:35:19.378Z,98695.61
2019-04-19T11:37:47.061Z,98686.00
2019-04-19T11:40:15.056Z,98686.54
2019-04-19T11:42:43.567Z,98689.80
2019-04-19T11:45:11.984Z,98689.27
2019-04-19T11:47:40.789Z,98681.87
2019-04-19T11:50:07.814Z,98689.67
2019-04-19T11:52:35.624Z,98682.21
2019-04-19T11:55:04.636Z,98679.91
2019-04-19T11:57:32.723Z,98679.77
2019-04-19T12:00:00.716Z,98678.86
2019-04-19T12:02:29.004Z,98681.28
2019-04-19T12:04:57.865Z,98667.77
2019-04-19T12:07:24.648Z,98660.37
2019-04-19T12:09:52.397Z,98665.75
2019-04-19T12:12:19.574Z,98665.06
2019-04-19T12:14:46.469Z,98666.20
2019-04-19T12:17:15.339Z,98666.10
2019-04-19T12:19:51.747Z,98667.22
2019-04-19T12:22:15.470Z,98663.48
2019-04-19T12:24:44.717Z,98656.97
2019-04-19T12:27:15.908Z,98656.45
2019-04-19T12:29:48.146Z,98653.46
2019-04-19T12:32:19.205Z,98657.52
2019-04-19T12:34:47.168Z,98656.42
2019-04-19T12:37:19.344Z,98650.20
2019-04-19T12:39:50.755Z,98645.34
2019-04-19T12:42:21.914Z,98639.67
2019-04-19T12:44:48.104Z,98636.16
2019-04-19T12:47:17.162Z,98634.80
2019-04-19T12:49:53.649Z,98633.40
2019-04-19T12:52:15.692Z,98630.73
2019-04-19T12:54:45.884Z,98628.27
2019-04-19T12:57:16.279Z,98623.69
2019-04-19T12:59:44.264Z,98614.13
2019-04-19T13:02:11.807Z,98613.77
2019-04-19T13:04:44.376Z,98610.92
2019-04-19T13:07:11.450Z,98610.97
2019-04-19T13:09:41.194Z,98602.05
2019-04-19T13:12:12.931Z,98605.26
2019-04-19T13:14:43.753Z,98599.34
2019-04-19T13:17:10.487Z,98592.87
2019-04-19T13:19:47.504Z,98593.13
2019-04-19T13:22:12.305Z,98594.73
2019-04-19T13:24:40.506Z,98584.48
2019-04-19T13:27:09.560Z,98585.22
2019-04-19T13:29:41.521Z,98576.39
2019-04-19T13:32:11.549Z,98572.55
2019-04-19T13:34:51.531Z,98574.67
2019-04-19T13:37:21.058Z,98564.31
2019-04-19T13:39:50.180Z,98560.80
2019-04-19T13:42:19.040Z,98561.81
2019-04-19T13:44:47.417Z,98559.33
2019-04-19T13:47:16.768Z,98555.80
2019-04-19T13:49:44.425Z,98555.28
2019-04-19T13:52:12.633Z,98551.23
2019-04-19T13:54:44.870Z,98549.04
2019-04-19T13:57:11.346Z,98541.72
2019-04-19T13:59:49.098Z,98543.00
2019-04-19T14:02:10.519Z,98546.66
2019-04-19T14:04:39.684Z,98543.66
2019-04-19T14:07:12.697Z,98541.05
2019-04-19T14:09:43.331Z,98531.70
2019-04-19T14:12:13.431Z,98536.21
2019-04-19T14:14:46.658Z,98532.91
2019-04-19T14:20:02.999Z,98526.33
2019-04-19T14:22:33.954Z,98520.53
2019-04-19T14:25:03.519Z,98522.55
2019-04-19T14:27:33.228Z,98518.65
2019-04-19T14:30:03.761Z,98522.69
2019-04-19T14:32:34.843Z,98511.30
2019-04-19T14:35:10.120Z,98511.00
2019-04-19T14:37:38.299Z,98511.56
2019-04-19T14:40:10.181Z,98512.44
2019-04-19T14:42:42.467Z,98505.17
2019-04-19T14:45:12.117Z,98503.20
2019-04-19T14:47:39.148Z,98506.40
2019-04-19T14:50:07.515Z,98503.91
2019-04-19T14:52:34.388Z,98501.73
2019-04-19T14:55:03.496Z,98500.97
2019-04-19T14:57:38.072Z,98498.27
2019-04-19T15:00:03.120Z,98490.58
2019-04-19T15:02:34.726Z,98492.75
2019-04-19T15:05:05.446Z,98491.80
2019-04-19T15:07:35.160Z,98486.83
2019-04-19T15:10:03.795Z,98489.54
2019-04-19T15:12:34.163Z,98486.84
2019-04-19T15:15:06.150Z,98489.08
2019-04-19T15:17:35.979Z,98486.41
2019-04-19T15:20:03.662Z,98487.79
2019-04-19T15:22:32.579Z,98483.52
2019-04-19T15:25:02.982Z,98483.60
2019-04-19T15:27:41.111Z,98482.66
2019-04-19T15:30:09.178Z,98482.20
2019-04-19T15:32:36.494Z,98483.06
2019-04-19T15:35:05.662Z,98484.04
2019-04-19T15:37:37.970Z,98482.03
2019-04-19T15:40:08.257Z,98482.02
2019-04-19T15:42:36.580Z,98484.42
2019-04-19T15:45:03.488Z,98475.13
2019-04-19T15:47:32.659Z,98477.28
2019-04-19T15:50:02.282Z,98476.75
2019-04-19T15:52:30.650Z,98474.25
2019-04-19T15:54:57.512Z,98479.44
2019-04-19T15:57:26.554Z,98474.52
2019-04-19T15:59:53.883Z,98471.06
2019-04-19T16:02:22.319Z,98469.25
2019-04-19T16:04:50.267Z,98470.55
2019-04-19T16:07:17.191Z,98468.79
2019-04-19T16:09:49.416Z,98470.69
2019-04-19T16:12:19.639Z,98468.13
2019-04-19T16:14:49.947Z,98462.69
2019-04-19T16:17:18.856Z,98466.99
2019-04-19T16:19:49.041Z,98462.49
2019-04-19T16:22:18.543Z,98458.69
2019-04-19T16:24:47.531Z,98465.21
2019-04-19T16:27:17.553Z,98456.83
2019-04-19T16:29:51.467Z,98460.34
2019-04-19T16:32:14.714Z,98452.77
2019-04-19T16:37:32.824Z,98455.47
2019-04-19T16:40:02.550Z,98454.17
2019-04-19T16:42:33.005Z,98455.55
2019-04-19T16:45:03.760Z,98451.21
2019-04-19T16:47:29.499Z,98453.02
2019-04-19T16:49:56.472Z,98454.95
2019-04-19T16:52:24.703Z,98450.55
2019-04-19T16:54:52.343Z,98449.73
2019-04-19T16:57:29.367Z,98453.45
2019-04-19T16:59:52.197Z,98456.44
2019-04-19T17:02:23.257Z,98456.72
2019-04-19T17:04:52.706Z,98451.13
2019-04-19T17:07:24.759Z,98455.25
2019-04-19T17:09:57.349Z,98455.50
2019-04-19T17:12:27.009Z,98458.62
2019-04-19T17:14:56.993Z,98459.35
2019-04-19T17:17:28.889Z,98459.74
2019-04-19T17:19:57.139Z,98460.17
2019-04-19T17:22:28.380Z,98462.20
2019-04-19T17:24:58.999Z,98464.19
2019-04-19T17:27:30.965Z,98462.44
2019-04-19T17:30:02.091Z,98461.31
2019-04-19T17:32:30.326Z,98474.31
2019-04-19T17:35:00.355Z,98481.05
2019-04-19T17:37:28.020Z,98477.23
2019-04-19T17:39:58.581Z,98484.30
2019-04-19T17:42:26.708Z,98475.59
2019-04-19T17:44:53.573Z,98477.02
2019-04-19T17:47:28.242Z,98482.92
2019-04-19T17:49:52.822Z,98483.53
2019-04-19T17:52:26.354Z,98484.43
2019-04-19T17:55:02.849Z,98490.10
2019-04-19T17:57:21.025Z,98489.52
2019-04-19T17:59:48.088Z,98492.77
2019-04-19T18:02:16.983Z,98495.44
2019-04-19T18:04:46.187Z,98498.83
2019-04-19T18:07:13.250Z,98502.14
2019-04-19T18:12:29.366Z,98507.62
2019-04-19T18:14:59.474Z,98502.47
2019-04-19T18:31:28.660Z,98520.47
2019-04-19T18:49:41.488Z,98546.91
2019-04-19T18:52:13.435Z,98562.17
2019-04-19T18:54:48.267Z,98557.44
2019-04-19T18:57:07.853Z,98565.14
2019-04-19T18:59:34.395Z,98575.63
2019-04-19T19:02:11.392Z,98581.06
2019-04-19T19:04:31.408Z,98585.03
2019-04-19T19:06:59.309Z,98589.05
2019-04-19T19:09:38.280Z,98592.62
2019-04-19T19:12:01.073Z,98584.46
2019-04-19T19:14:24.707Z,98587.62
2019-04-19T19:16:54.303Z,98588.80
2019-04-19T19:19:26.757Z,98592.00
2019-04-19T19:21:51.471Z,98600.19
2019-04-19T19:24:40.583Z,98596.23
2019-04-19T19:26:56.962Z,98597.85
2019-04-19T19:29:16.195Z,98602.11
2019-04-19T19:31:43.064Z,98595.97
2019-04-19T19:34:09.989Z,98595.75
2019-04-19T19:36:44.305Z,98603.65
2019-04-19T19:42:05.450Z,98604.70
2019-04-19T19:42:16.708Z,98608.87
2019-04-19T19:44:13.697Z,98604.97
2019-04-19T19:46:51.812Z,98610.09
2019-04-19T19:51:39.579Z,98612.23
2019-04-19T19:54:43.395Z,98611.21
2019-04-19T19:56:53.892Z,98613.36
2019-04-19T19:59:10.087Z,98615.28
2019-04-19T20:01:34.889Z,98619.57
2019-04-19T20:03:52.454Z,98623.38
2019-04-19T20:06:24.607Z,98622.45
2019-04-19T20:08:47.966Z,98621.71
2019-04-19T20:11:20.647Z,98626.62
2019-04-19T20:13:48.194Z,98631.59
2019-04-19T20:16:19.000Z,98635.56
2019-04-19T20:18:45.390Z,98633.84
2019-04-19T20:21:14.424Z,98630.62
2019-04-19T20:23:55.070Z,98634.19
2019-04-19T20:26:17.209Z,98634.55
2019-04-19T20:28:37.919Z,98634.82
2019-04-19T20:31:05.977Z,98642.58
2019-04-19T20:33:44.550Z,98639.33
2019-04-19T20:36:07.656Z,98642.43
2019-04-19T20:38:40.450Z,98638.98
2019-04-19T20:41:08.193Z,98645.84
2019-04-19T20:43:48.036Z,98639.10
2019-04-19T20:46:09.657Z,98642.36
2019-04-19T20:48:33.183Z,98643.30
2019-04-19T20:51:08.235Z,98643.69
2019-04-19T20:53:38.642Z,98643.02
2019-04-19T20:56:30.270Z,98649.06
2019-04-19T20:58:38.791Z,98642.69
2019-04-19T21:00:58.893Z,98646.34
2019-04-19T21:03:32.985Z,98653.13
2019-04-19T21:05:56.914Z,98655.95
2019-04-19T21:08:30.240Z,98657.88
2019-04-19T21:11:02.744Z,98659.63
2019-04-19T21:13:31.361Z,98667.52
2019-04-19T21:15:58.482Z,98664.74
2019-04-19T21:18:29.196Z,98661.78
2019-04-19T21:21:06.364Z,98665.55
2019-04-19T21:26:23.032Z,98667.59
2019-04-19T21:28:49.822Z,98668.27
2019-04-19T21:31:36.115Z,98672.69
2019-04-19T21:33:52.184Z,98666.67
2019-04-19T21:36:19.973Z,98668.03
2019-04-19T21:38:56.228Z,98676.93
2019-04-19T21:41:23.703Z,98675.16
2019-04-19T21:43:49.682Z,98674.25
2019-04-19T21:46:20.127Z,98673.13
2019-04-19T21:48:48.981Z,98670.92
2019-04-19T21:51:21.901Z,98675.51
2019-04-19T21:53:48.331Z,98672.99
2019-04-19T21:56:17.197Z,98673.84
2019-04-19T21:58:47.578Z,98677.44
2019-04-19T22:01:17.834Z,98680.77
2019-04-19T22:06:34.988Z,98671.26
2019-04-19T22:09:08.694Z,98672.67
2019-04-19T22:11:32.220Z,98672.02
2019-04-19T22:14:00.302Z,98663.65
2019-04-19T22:16:35.299Z,98669.23
2019-04-19T22:18:59.883Z,98661.67
2019-04-19T22:21:33.487Z,98666.88
2019-04-19T22:23:58.596Z,98668.43
2019-04-19T22:26:34.478Z,98664.41
2019-04-19T22:29:01.710Z,98666.80
2019-04-19T22:31:32.661Z,98670.31
2019-04-19T22:33:56.649Z,98666.48
2019-04-19T22:36:25.771Z,98660.30
2019-04-19T22:38:58.338Z,98667.48
2019-04-19T22:41:26.721Z,98666.41
2019-04-19T22:43:56.446Z,98665.20
2019-04-19T22:46:23.678Z,98663.56
2019-04-19T22:49:00.157Z,98658.38
2019-04-19T22:51:24.533Z,98657.11
2019-04-19T22:53:52.661Z,98660.40
2019-04-19T22:56:34.006Z,98661.38
2019-04-19T22:58:58.973Z,98659.98
2019-04-19T23:01:31.217Z,98669.66
2019-04-19T23:04:00.129Z,98662.13
2019-04-19T23:06:27.520Z,98658.94
2019-04-19T23:08:52.982Z,98658.39
2019-04-19T23:11:23.591Z,98658.05
2019-04-19T23:13:51.482Z,98659.95
2019-04-19T23:16:21.569Z,98663.25
2019-04-19T23:18:56.870Z,98655.63
2019-04-19T23:21:24.596Z,98648.95
2019-04-19T23:23:55.508Z,98648.83
2019-04-19T23:26:46.242Z,98648.79
2019-04-19T23:28:53.181Z,98650.02
2019-04-19T23:31:22.913Z,98652.67
2019-04-19T23:33:57.121Z,98650.10
2019-04-19T23:36:22.889Z,98649.06
2019-04-19T23:38:47.542Z,98657.96
2019-04-19T23:41:21.496Z,98647.05
2019-04-19T23:43:47.673Z,98642.09
2019-04-19T23:46:26.168Z,98650.70
2019-04-19T23:48:54.361Z,98650.85
2019-04-19T23:51:21.666Z,98654.53
2019-04-19T23:53:50.149Z,98653.36
2019-04-19T23:56:29.770Z,98645.39
2019-04-19T23:58:52.274Z,98646.24
